METAR Data

Data at: 1250 UTC 23 Mar 2019

METAR for:EGLF (Farnborough Arpt, --, UK)
Text:EGLF 231220Z AUTO 06010KT 9999 BKN035/// OVC042/// 12/03 Q1032
Temperature: 12.0°C ( 54°F)
Dewpoint: 3.0°C ( 37°F) [RH = 54%]
Pressure (altimeter):30.47 inches Hg (1032.0 mb)
Winds:from the ENE (60 degrees) at 12 MPH (10 knots; 5.1 m/s)
Visibility:6 or more sm (10+ km)
Ceiling:3500 feet AGL
Clouds: broken clouds at 3500 feet AGL, overcast cloud deck at 4200 feet AGL

TAF for:EGLF (Farnborough Arpt, --, UK) issued at 1103 UTC 23 Mar 2019
Text:TAF EGLF 231103Z 2312/2320 04010KT 9999 BKN020
Forecast period:1200 to 1400 UTC 23 March 2019
Forecast type:FROM: standard forecast or significant change
Winds:from the NE (40 degrees) at 12 MPH (10 knots; 5.1 m/s)
Visibility:6 or more sm (10+ km)
Ceiling:2000 feet AGL
Clouds: broken clouds at 2000 feet AGL
Text:BECMG 2314/2317 CAVOK
Forecast period:1400 to 2000 UTC 23 March 2019
Forecast type:BECOMING: Conditions expected to become as follows by 1700 UTC 23 March 2019
Winds:from the NE (40 degrees) at 12 MPH (10 knots; 5.1 m/s)
Visibility:6 or more sm (10+ km)
Clouds:missing
Weather:NSW (no significant weather)

METAR for:EGUB (Benson(RAF), --, UK)
Text:EGUB 231150Z AUTO 03009KT 9999 // BKN040/// 12/03 Q1032
Temperature: 12.0°C ( 54°F)
Dewpoint: 3.0°C ( 37°F) [RH = 54%]
Pressure (altimeter):30.47 inches Hg (1032.0 mb)
Winds:from the NNE (30 degrees) at 10 MPH (9 knots; 4.6 m/s)
Visibility:6 or more sm (10+ km)
Ceiling:4000 feet AGL
Clouds: broken clouds at 4000 feet AGL

TAF for:EGUB (Benson(RAF), --, UK)
Text:No data found

METAR for:EGVO (Odiham(RAF), --, UK)
Text:EGVO 231150Z AUTO 06007KT 9999 BKN037/// 11/03 Q1032
Temperature: 11.0°C ( 52°F)
Dewpoint: 3.0°C ( 37°F) [RH = 58%]
Pressure (altimeter):30.47 inches Hg (1032.0 mb)
Winds:from the ENE (60 degrees) at 8 MPH (7 knots; 3.6 m/s)
Visibility:6 or more sm (10+ km)
Ceiling:3700 feet AGL
Clouds: broken clouds at 3700 feet AGL

TAF for:EGVO (Odiham(RAF), --, UK)
Text:No data found

METAR for:EGTK (Oxford Arpt, --, UK)
Text:EGTK 231220Z 04007KT 9999 FEW025 SCT030 10/02 Q1033
Temperature: 10.0°C ( 50°F)
Dewpoint: 2.0°C ( 36°F) [RH = 57%]
Pressure (altimeter):30.50 inches Hg (1033.0 mb)
Winds:from the NE (40 degrees) at 8 MPH (7 knots; 3.6 m/s)
Visibility:6 or more sm (10+ km)
Ceiling:at least 12,000 feet AGL
Clouds: few clouds at 2500 feet AGL, scattered clouds at 3000 feet AGL

TAF for:EGTK (Oxford Arpt, --, UK) issued at 1058 UTC 23 Mar 2019
Text:TAF EGTK 231058Z 2312/2321 03009KT 9999 FEW035 SCT045
Forecast period:1200 to 2100 UTC 23 March 2019
Forecast type:FROM: standard forecast or significant change
Winds:from the NNE (30 degrees) at 10 MPH (9 knots; 4.6 m/s)
Visibility:6 or more sm (10+ km)
Ceiling:at least 12,000 feet AGL
Clouds: few clouds at 3500 feet AGL, scattered clouds at 4500 feet AGL

METAR for:EGHH (Bournemouth Intl, --, UK)
Text:EGHH 231220Z 05008KT 9999 SCT011 BKN021 11/09 Q1032
Temperature: 11.0°C ( 52°F)
Dewpoint: 9.0°C ( 48°F) [RH = 87%]
Pressure (altimeter):30.47 inches Hg (1032.0 mb)
Winds:from the NE (50 degrees) at 9 MPH (8 knots; 4.1 m/s)
Visibility:6 or more sm (10+ km)
Ceiling:2100 feet AGL
Clouds: scattered clouds at 1100 feet AGL, broken clouds at 2100 feet AGL

TAF for:EGHH (Bournemouth Intl, --, UK) issued at 1154 UTC 23 Mar 2019
Text:TAF AMD EGHH 231154Z 2312/2321 05008KT 7000 SCT012 BKN025
Forecast period:1200 to 2100 UTC 23 March 2019
Forecast type:FROM: standard forecast or significant change
Winds:from the NE (50 degrees) at 9 MPH (8 knots; 4.1 m/s)
Visibility: 4 sm ( 7 km)
Ceiling:2500 feet AGL
Clouds: scattered clouds at 1200 feet AGL, broken clouds at 2500 feet AGL
Text:BECMG 2312/2315 9999
Forecast period:1200 to 2100 UTC 23 March 2019
Forecast type:BECOMING: Conditions expected to become as follows by 1500 UTC 23 March 2019
Winds:from the NE (50 degrees) at 9 MPH (8 knots; 4.1 m/s)
Visibility:6 or more sm (10+ km)
Ceiling:2500 feet AGL
Clouds: scattered clouds at 1200 feet AGL, broken clouds at 2500 feet AGL
Text:PROB30
Forecast period:1200 to 1500 UTC 23 March 2019
Forecast type:TEMPORARY: The following changes expected for less than half the time period
Ceiling:1200 feet AGL
Clouds: broken clouds at 1200 feet AGL

METAR for:
Text:No data found

TAF for:
Text:No data found